sensor_id;sensor_type;location;lat;lon;timestamp;P1;durP1;ratioP1;P2;durP2;ratioP2
19024;SDS011;9645;51.448;6.260;2023-12-20T00:01:00;23.67;;;9.30;;
19024;SDS011;9645;51.448;6.260;2023-12-20T00:03:27;26.80;;;9.57;;
19024;SDS011;9645;51.448;6.260;2023-12-20T00:05:54;24.83;;;10.15;;
19024;SDS011;9645;51.448;6.260;2023-12-20T00:08:22;26.08;;;8.27;;
19024;SDS011;9645;51.448;6.260;2023-12-20T00:10:49;20.92;;;8.10;;
19024;SDS011;9645;51.448;6.260;2023-12-20T00:13:16;18.48;;;6.75;;
19024;SDS011;9645;51.448;6.260;2023-12-20T00:15:43;22.88;;;7.90;;
19024;SDS011;9645;51.448;6.260;2023-12-20T00:18:10;32.80;;;8.98;;
19024;SDS011;9645;51.448;6.260;2023-12-20T00:20:37;27.45;;;7.15;;
19024;SDS011;9645;51.448;6.260;2023-12-20T00:23:04;24.17;;;7.57;;
19024;SDS011;9645;51.448;6.260;2023-12-20T00:25:34;44.72;;;7.00;;
19024;SDS011;9645;51.448;6.260;2023-12-20T00:28:01;22.85;;;7.60;;
19024;SDS011;9645;51.448;6.260;2023-12-20T00:30:28;29.25;;;7.90;;
19024;SDS011;9645;51.448;6.260;2023-12-20T00:32:55;22.88;;;7.95;;
19024;SDS011;9645;51.448;6.260;2023-12-20T00:35:22;18.63;;;7.90;;
19024;SDS011;9645;51.448;6.260;2023-12-20T00:37:49;25.77;;;7.43;;
19024;SDS011;9645;51.448;6.260;2023-12-20T00:40:16;29.92;;;8.38;;
19024;SDS011;9645;51.448;6.260;2023-12-20T00:42:44;31.25;;;10.68;;
19024;SDS011;9645;51.448;6.260;2023-12-20T00:45:12;29.88;;;10.23;;
19024;SDS011;9645;51.448;6.260;2023-12-20T00:47:39;26.08;;;9.63;;
19024;SDS011;9645;51.448;6.260;2023-12-20T00:50:07;35.40;;;10.60;;
19024;SDS011;9645;51.448;6.260;2023-12-20T00:52:34;29.40;;;10.40;;
19024;SDS011;9645;51.448;6.260;2023-12-20T00:55:01;22.25;;;9.80;;
19024;SDS011;9645;51.448;6.260;2023-12-20T00:57:29;35.92;;;9.93;;
19024;SDS011;9645;51.448;6.260;2023-12-20T00:59:57;27.80;;;8.25;;
19024;SDS011;9645;51.448;6.260;2023-12-20T01:02:24;28.33;;;9.13;;
19024;SDS011;9645;51.448;6.260;2023-12-20T01:04:51;26.40;;;8.18;;
19024;SDS011;9645;51.448;6.260;2023-12-20T01:07:18;27.80;;;8.93;;
19024;SDS011;9645;51.448;6.260;2023-12-20T01:09:46;20.70;;;8.73;;
19024;SDS011;9645;51.448;6.260;2023-12-20T01:12:13;30.67;;;9.30;;
19024;SDS011;9645;51.448;6.260;2023-12-20T01:14:40;39.83;;;9.00;;
19024;SDS011;9645;51.448;6.260;2023-12-20T01:17:08;25.70;;;7.72;;
19024;SDS011;9645;51.448;6.260;2023-12-20T01:19:35;20.33;;;8.13;;
19024;SDS011;9645;51.448;6.260;2023-12-20T01:22:02;28.73;;;7.63;;
19024;SDS011;9645;51.448;6.260;2023-12-20T01:24:30;20.10;;;7.00;;
19024;SDS011;9645;51.448;6.260;2023-12-20T01:26:57;23.98;;;8.25;;
19024;SDS011;9645;51.448;6.260;2023-12-20T01:29:24;32.47;;;7.43;;
19024;SDS011;9645;51.448;6.260;2023-12-20T01:31:51;19.77;;;6.78;;
19024;SDS011;9645;51.448;6.260;2023-12-20T01:34:19;40.67;;;7.55;;
19024;SDS011;9645;51.448;6.260;2023-12-20T01:36:46;30.80;;;7.28;;
19024;SDS011;9645;51.448;6.260;2023-12-20T01:39:13;17.85;;;5.40;;
19024;SDS011;9645;51.448;6.260;2023-12-20T01:41:40;17.90;;;5.28;;
19024;SDS011;9645;51.448;6.260;2023-12-20T01:44:07;20.35;;;4.60;;
19024;SDS011;9645;51.448;6.260;2023-12-20T01:46:34;15.93;;;4.57;;
19024;SDS011;9645;51.448;6.260;2023-12-20T01:49:01;13.55;;;4.50;;
19024;SDS011;9645;51.448;6.260;2023-12-20T01:51:29;13.65;;;3.58;;
19024;SDS011;9645;51.448;6.260;2023-12-20T01:53:57;12.07;;;4.45;;
19024;SDS011;9645;51.448;6.260;2023-12-20T01:56:25;14.50;;;3.78;;
19024;SDS011;9645;51.448;6.260;2023-12-20T01:58:52;28.95;;;4.38;;
19024;SDS011;9645;51.448;6.260;2023-12-20T02:01:20;22.80;;;4.07;;
19024;SDS011;9645;51.448;6.260;2023-12-20T02:03:47;18.35;;;3.28;;
19024;SDS011;9645;51.448;6.260;2023-12-20T02:06:14;12.65;;;3.70;;
19024;SDS011;9645;51.448;6.260;2023-12-20T02:08:43;14.00;;;3.33;;
19024;SDS011;9645;51.448;6.260;2023-12-20T02:11:11;16.73;;;3.30;;
19024;SDS011;9645;51.448;6.260;2023-12-20T02:13:39;11.65;;;3.05;;
19024;SDS011;9645;51.448;6.260;2023-12-20T02:16:06;12.52;;;3.17;;
19024;SDS011;9645;51.448;6.260;2023-12-20T02:18:33;11.88;;;3.08;;
19024;SDS011;9645;51.448;6.260;2023-12-20T02:21:00;28.40;;;3.50;;
19024;SDS011;9645;51.448;6.260;2023-12-20T02:23:28;20.40;;;3.45;;
19024;SDS011;9645;51.448;6.260;2023-12-20T02:25:55;13.70;;;2.47;;
19024;SDS011;9645;51.448;6.260;2023-12-20T02:28:22;21.23;;;3.22;;
19024;SDS011;9645;51.448;6.260;2023-12-20T02:30:49;22.50;;;3.05;;
19024;SDS011;9645;51.448;6.260;2023-12-20T02:33:16;19.92;;;3.78;;
19024;SDS011;9645;51.448;6.260;2023-12-20T02:35:43;14.68;;;2.65;;
19024;SDS011;9645;51.448;6.260;2023-12-20T02:38:10;22.77;;;3.42;;
19024;SDS011;9645;51.448;6.260;2023-12-20T02:40:39;10.73;;;3.25;;
19024;SDS011;9645;51.448;6.260;2023-12-20T02:43:05;18.05;;;3.08;;
19024;SDS011;9645;51.448;6.260;2023-12-20T02:45:32;10.57;;;2.70;;
19024;SDS011;9645;51.448;6.260;2023-12-20T02:47:59;17.77;;;2.50;;
19024;SDS011;9645;51.448;6.260;2023-12-20T02:50:28;26.42;;;3.20;;
19024;SDS011;9645;51.448;6.260;2023-12-20T02:52:55;32.38;;;3.15;;
19024;SDS011;9645;51.448;6.260;2023-12-20T02:55:22;17.67;;;2.65;;
19024;SDS011;9645;51.448;6.260;2023-12-20T02:57:50;10.20;;;2.72;;
19024;SDS011;9645;51.448;6.260;2023-12-20T03:00:17;18.10;;;3.03;;
19024;SDS011;9645;51.448;6.260;2023-12-20T03:02:44;13.70;;;2.90;;
19024;SDS011;9645;51.448;6.260;2023-12-20T03:05:11;25.10;;;3.60;;
19024;SDS011;9645;51.448;6.260;2023-12-20T03:07:38;21.63;;;2.83;;
19024;SDS011;9645;51.448;6.260;2023-12-20T03:10:05;16.30;;;2.90;;
19024;SDS011;9645;51.448;6.260;2023-12-20T03:12:34;22.33;;;3.30;;
19024;SDS011;9645;51.448;6.260;2023-12-20T03:15:02;15.07;;;3.20;;
19024;SDS011;9645;51.448;6.260;2023-12-20T03:17:30;7.80;;;2.80;;
19024;SDS011;9645;51.448;6.260;2023-12-20T03:19:57;15.70;;;2.97;;
19024;SDS011;9645;51.448;6.260;2023-12-20T03:22:24;10.60;;;2.75;;
19024;SDS011;9645;51.448;6.260;2023-12-20T03:24:51;20.27;;;3.25;;
19024;SDS011;9645;51.448;6.260;2023-12-20T03:27:18;18.63;;;2.85;;
19024;SDS011;9645;51.448;6.260;2023-12-20T03:29:45;9.07;;;2.38;;
19024;SDS011;9645;51.448;6.260;2023-12-20T03:32:14;25.35;;;3.20;;
19024;SDS011;9645;51.448;6.260;2023-12-20T03:34:40;27.23;;;3.17;;
19024;SDS011;9645;51.448;6.260;2023-12-20T03:37:07;11.32;;;2.63;;
19024;SDS011;9645;51.448;6.260;2023-12-20T03:39:34;15.23;;;2.75;;
19024;SDS011;9645;51.448;6.260;2023-12-20T03:42:01;18.40;;;2.40;;
19024;SDS011;9645;51.448;6.260;2023-12-20T03:44:29;7.13;;;2.40;;
19024;SDS011;9645;51.448;6.260;2023-12-20T03:46:55;18.92;;;3.70;;
19024;SDS011;9645;51.448;6.260;2023-12-20T03:49:24;22.13;;;3.95;;
19024;SDS011;9645;51.448;6.260;2023-12-20T03:51:51;17.33;;;3.17;;
19024;SDS011;9645;51.448;6.260;2023-12-20T03:54:18;20.10;;;2.97;;
19024;SDS011;9645;51.448;6.260;2023-12-20T03:56:45;10.88;;;2.80;;
19024;SDS011;9645;51.448;6.260;2023-12-20T03:59:12;17.88;;;3.45;;
19024;SDS011;9645;51.448;6.260;2023-12-20T04:01:42;20.80;;;3.38;;
19024;SDS011;9645;51.448;6.260;2023-12-20T04:04:09;19.98;;;3.92;;
19024;SDS011;9645;51.448;6.260;2023-12-20T04:06:37;17.73;;;3.60;;
19024;SDS011;9645;51.448;6.260;2023-12-20T04:09:04;15.85;;;4.05;;
19024;SDS011;9645;51.448;6.260;2023-12-20T04:11:34;22.70;;;4.18;;
19024;SDS011;9645;51.448;6.260;2023-12-20T04:14:01;23.88;;;3.72;;
19024;SDS011;9645;51.448;6.260;2023-12-20T04:16:29;52.33;;;4.68;;
19024;SDS011;9645;51.448;6.260;2023-12-20T04:18:56;14.98;;;3.30;;
19024;SDS011;9645;51.448;6.260;2023-12-20T04:21:23;25.67;;;4.38;;
19024;SDS011;9645;51.448;6.260;2023-12-20T04:23:52;16.80;;;3.92;;
19024;SDS011;9645;51.448;6.260;2023-12-20T04:26:19;27.50;;;5.38;;
19024;SDS011;9645;51.448;6.260;2023-12-20T04:28:45;27.23;;;4.90;;
19024;SDS011;9645;51.448;6.260;2023-12-20T04:31:13;20.83;;;4.70;;
19024;SDS011;9645;51.448;6.260;2023-12-20T04:33:40;30.20;;;4.78;;
19024;SDS011;9645;51.448;6.260;2023-12-20T04:36:07;21.98;;;4.90;;
19024;SDS011;9645;51.448;6.260;2023-12-20T04:38:34;22.30;;;5.15;;
19024;SDS011;9645;51.448;6.260;2023-12-20T04:41:03;17.95;;;4.65;;
19024;SDS011;9645;51.448;6.260;2023-12-20T04:43:30;25.25;;;5.50;;
19024;SDS011;9645;51.448;6.260;2023-12-20T04:45:57;16.48;;;4.82;;
19024;SDS011;9645;51.448;6.260;2023-12-20T04:48:23;18.75;;;4.75;;
19024;SDS011;9645;51.448;6.260;2023-12-20T04:50:50;31.45;;;5.20;;
19024;SDS011;9645;51.448;6.260;2023-12-20T04:53:17;16.55;;;5.03;;
19024;SDS011;9645;51.448;6.260;2023-12-20T04:55:44;31.75;;;5.70;;
19024;SDS011;9645;51.448;6.260;2023-12-20T04:58:13;31.75;;;4.60;;
19024;SDS011;9645;51.448;6.260;2023-12-20T05:00:39;17.77;;;5.30;;
19024;SDS011;9645;51.448;6.260;2023-12-20T05:03:07;21.33;;;5.57;;
19024;SDS011;9645;51.448;6.260;2023-12-20T05:05:34;19.30;;;5.43;;
19024;SDS011;9645;51.448;6.260;2023-12-20T05:08:01;21.25;;;5.00;;
19024;SDS011;9645;51.448;6.260;2023-12-20T05:10:29;19.92;;;4.88;;
19024;SDS011;9645;51.448;6.260;2023-12-20T05:12:56;16.08;;;5.30;;
19024;SDS011;9645;51.448;6.260;2023-12-20T05:15:24;32.95;;;5.32;;
19024;SDS011;9645;51.448;6.260;2023-12-20T05:17:51;36.13;;;4.95;;
19024;SDS011;9645;51.448;6.260;2023-12-20T05:20:18;33.58;;;5.05;;
19024;SDS011;9645;51.448;6.260;2023-12-20T05:22:45;22.23;;;5.43;;
19024;SDS011;9645;51.448;6.260;2023-12-20T05:25:12;29.45;;;5.25;;
19024;SDS011;9645;51.448;6.260;2023-12-20T05:27:39;33.40;;;5.28;;
19024;SDS011;9645;51.448;6.260;2023-12-20T05:30:07;19.30;;;4.57;;
19024;SDS011;9645;51.448;6.260;2023-12-20T05:32:35;26.10;;;4.85;;
19024;SDS011;9645;51.448;6.260;2023-12-20T05:35:02;38.80;;;5.05;;
19024;SDS011;9645;51.448;6.260;2023-12-20T05:37:30;20.10;;;4.88;;
19024;SDS011;9645;51.448;6.260;2023-12-20T05:39:57;28.58;;;4.85;;
19024;SDS011;9645;51.448;6.260;2023-12-20T05:42:24;15.57;;;5.32;;
19024;SDS011;9645;51.448;6.260;2023-12-20T05:44:51;24.23;;;5.32;;
19024;SDS011;9645;51.448;6.260;2023-12-20T05:47:18;22.85;;;5.05;;
19024;SDS011;9645;51.448;6.260;2023-12-20T05:49:46;28.13;;;5.97;;
19024;SDS011;9645;51.448;6.260;2023-12-20T05:52:13;28.70;;;5.90;;
19024;SDS011;9645;51.448;6.260;2023-12-20T05:54:40;25.33;;;5.60;;
19024;SDS011;9645;51.448;6.260;2023-12-20T05:57:07;32.33;;;5.53;;
19024;SDS011;9645;51.448;6.260;2023-12-20T05:59:34;20.50;;;6.05;;
19024;SDS011;9645;51.448;6.260;2023-12-20T06:02:02;24.70;;;4.70;;
19024;SDS011;9645;51.448;6.260;2023-12-20T06:04:30;22.83;;;5.28;;
19024;SDS011;9645;51.448;6.260;2023-12-20T06:06:58;33.22;;;5.72;;
19024;SDS011;9645;51.448;6.260;2023-12-20T06:09:26;28.45;;;5.18;;
19024;SDS011;9645;51.448;6.260;2023-12-20T06:11:53;24.52;;;8.13;;
19024;SDS011;9645;51.448;6.260;2023-12-20T06:14:20;26.13;;;6.70;;
19024;SDS011;9645;51.448;6.260;2023-12-20T06:16:47;28.45;;;5.82;;
19024;SDS011;9645;51.448;6.260;2023-12-20T06:19:14;18.35;;;4.63;;
19024;SDS011;9645;51.448;6.260;2023-12-20T06:21:41;18.25;;;4.45;;
19024;SDS011;9645;51.448;6.260;2023-12-20T06:24:10;26.92;;;5.00;;
19024;SDS011;9645;51.448;6.260;2023-12-20T06:26:37;20.98;;;4.53;;
19024;SDS011;9645;51.448;6.260;2023-12-20T06:29:03;18.20;;;4.63;;
19024;SDS011;9645;51.448;6.260;2023-12-20T06:31:30;17.83;;;4.97;;
19024;SDS011;9645;51.448;6.260;2023-12-20T06:33:58;20.40;;;5.00;;
19024;SDS011;9645;51.448;6.260;2023-12-20T06:36:25;32.97;;;5.72;;
19024;SDS011;9645;51.448;6.260;2023-12-20T06:38:52;26.35;;;4.57;;
19024;SDS011;9645;51.448;6.260;2023-12-20T06:41:21;17.10;;;5.03;;
19024;SDS011;9645;51.448;6.260;2023-12-20T06:43:49;25.70;;;4.75;;
19024;SDS011;9645;51.448;6.260;2023-12-20T06:46:16;30.10;;;4.65;;
19024;SDS011;9645;51.448;6.260;2023-12-20T06:48:43;17.17;;;4.55;;
19024;SDS011;9645;51.448;6.260;2023-12-20T06:51:11;18.08;;;4.72;;
19024;SDS011;9645;51.448;6.260;2023-12-20T06:53:41;14.25;;;4.78;;
19024;SDS011;9645;51.448;6.260;2023-12-20T06:56:10;26.40;;;5.10;;
19024;SDS011;9645;51.448;6.260;2023-12-20T06:58:39;25.13;;;5.22;;
19024;SDS011;9645;51.448;6.260;2023-12-20T07:01:07;30.75;;;4.70;;
19024;SDS011;9645;51.448;6.260;2023-12-20T07:03:37;18.67;;;4.10;;
19024;SDS011;9645;51.448;6.260;2023-12-20T07:06:05;29.63;;;4.15;;
19024;SDS011;9645;51.448;6.260;2023-12-20T07:08:32;30.63;;;5.15;;
19024;SDS011;9645;51.448;6.260;2023-12-20T07:11:00;20.88;;;4.55;;
19024;SDS011;9645;51.448;6.260;2023-12-20T07:13:28;18.23;;;4.43;;
19024;SDS011;9645;51.448;6.260;2023-12-20T07:15:57;22.52;;;4.32;;
19024;SDS011;9645;51.448;6.260;2023-12-20T07:18:24;45.38;;;4.93;;
19024;SDS011;9645;51.448;6.260;2023-12-20T07:20:51;26.35;;;4.38;;
19024;SDS011;9645;51.448;6.260;2023-12-20T07:23:19;24.70;;;5.50;;
19024;SDS011;9645;51.448;6.260;2023-12-20T07:25:46;24.45;;;4.22;;
19024;SDS011;9645;51.448;6.260;2023-12-20T07:28:13;18.35;;;4.07;;
19024;SDS011;9645;51.448;6.260;2023-12-20T07:30:40;27.95;;;6.35;;
19024;SDS011;9645;51.448;6.260;2023-12-20T07:33:09;22.63;;;4.15;;
19024;SDS011;9645;51.448;6.260;2023-12-20T07:35:37;23.95;;;5.22;;
19024;SDS011;9645;51.448;6.260;2023-12-20T07:38:04;38.72;;;5.25;;
19024;SDS011;9645;51.448;6.260;2023-12-20T07:40:32;15.32;;;3.50;;
19024;SDS011;9645;51.448;6.260;2023-12-20T07:42:59;32.50;;;4.35;;
19024;SDS011;9645;51.448;6.260;2023-12-20T07:45:26;22.38;;;3.65;;
19024;SDS011;9645;51.448;6.260;2023-12-20T07:47:53;27.40;;;4.15;;
19024;SDS011;9645;51.448;6.260;2023-12-20T07:50:21;12.82;;;3.28;;
19024;SDS011;9645;51.448;6.260;2023-12-20T07:52:48;19.63;;;3.53;;
19024;SDS011;9645;51.448;6.260;2023-12-20T07:55:15;34.40;;;4.18;;
19024;SDS011;9645;51.448;6.260;2023-12-20T07:57:42;26.23;;;3.95;;
19024;SDS011;9645;51.448;6.260;2023-12-20T08:00:09;26.50;;;3.72;;
19024;SDS011;9645;51.448;6.260;2023-12-20T08:02:37;31.38;;;4.18;;
19024;SDS011;9645;51.448;6.260;2023-12-20T08:05:04;21.00;;;4.15;;
19024;SDS011;9645;51.448;6.260;2023-12-20T08:07:33;30.27;;;4.95;;
19024;SDS011;9645;51.448;6.260;2023-12-20T08:10:00;18.73;;;3.80;;
19024;SDS011;9645;51.448;6.260;2023-12-20T08:12:27;13.27;;;3.80;;
19024;SDS011;9645;51.448;6.260;2023-12-20T08:14:56;20.33;;;3.90;;
19024;SDS011;9645;51.448;6.260;2023-12-20T08:17:23;24.10;;;4.32;;
19024;SDS011;9645;51.448;6.260;2023-12-20T08:19:50;32.40;;;4.93;;
19024;SDS011;9645;51.448;6.260;2023-12-20T08:22:17;13.40;;;3.83;;
19024;SDS011;9645;51.448;6.260;2023-12-20T08:24:46;21.80;;;3.38;;
19024;SDS011;9645;51.448;6.260;2023-12-20T08:27:13;20.10;;;5.00;;
19024;SDS011;9645;51.448;6.260;2023-12-20T08:29:41;15.73;;;5.00;;
19024;SDS011;9645;51.448;6.260;2023-12-20T08:32:10;27.95;;;5.22;;
19024;SDS011;9645;51.448;6.260;2023-12-20T08:34:37;23.55;;;4.53;;
19024;SDS011;9645;51.448;6.260;2023-12-20T08:37:04;37.20;;;4.35;;
19024;SDS011;9645;51.448;6.260;2023-12-20T08:39:31;16.50;;;3.60;;
19024;SDS011;9645;51.448;6.260;2023-12-20T08:42:00;25.55;;;3.88;;
19024;SDS011;9645;51.448;6.260;2023-12-20T08:44:27;22.65;;;3.63;;
19024;SDS011;9645;51.448;6.260;2023-12-20T08:46:54;25.48;;;4.03;;
19024;SDS011;9645;51.448;6.260;2023-12-20T08:49:22;16.63;;;3.80;;
19024;SDS011;9645;51.448;6.260;2023-12-20T08:51:50;13.30;;;4.10;;
19024;SDS011;9645;51.448;6.260;2023-12-20T08:54:17;23.88;;;3.95;;
19024;SDS011;9645;51.448;6.260;2023-12-20T08:56:44;19.48;;;4.55;;
19024;SDS011;9645;51.448;6.260;2023-12-20T08:59:13;34.55;;;6.28;;
19024;SDS011;9645;51.448;6.260;2023-12-20T09:01:40;21.25;;;3.72;;
19024;SDS011;9645;51.448;6.260;2023-12-20T09:04:07;14.02;;;4.32;;
19024;SDS011;9645;51.448;6.260;2023-12-20T09:06:34;25.67;;;5.05;;
19024;SDS011;9645;51.448;6.260;2023-12-20T09:09:01;19.83;;;6.35;;
19024;SDS011;9645;51.448;6.260;2023-12-20T09:11:28;20.17;;;4.63;;
19024;SDS011;9645;51.448;6.260;2023-12-20T09:13:55;14.60;;;4.07;;
19024;SDS011;9645;51.448;6.260;2023-12-20T09:16:26;23.38;;;4.15;;
19024;SDS011;9645;51.448;6.260;2023-12-20T09:18:56;14.52;;;3.80;;
19024;SDS011;9645;51.448;6.260;2023-12-20T09:21:23;23.10;;;4.07;;
19024;SDS011;9645;51.448;6.260;2023-12-20T09:23:50;24.58;;;4.05;;
19024;SDS011;9645;51.448;6.260;2023-12-20T09:26:17;30.58;;;4.20;;
19024;SDS011;9645;51.448;6.260;2023-12-20T09:28:44;20.48;;;3.83;;
19024;SDS011;9645;51.448;6.260;2023-12-20T09:31:12;23.00;;;5.03;;
19024;SDS011;9645;51.448;6.260;2023-12-20T09:33:41;15.65;;;3.75;;
19024;SDS011;9645;51.448;6.260;2023-12-20T09:36:08;14.30;;;4.05;;
19024;SDS011;9645;51.448;6.260;2023-12-20T09:38:35;13.35;;;4.00;;
19024;SDS011;9645;51.448;6.260;2023-12-20T09:41:02;21.33;;;4.90;;
19024;SDS011;9645;51.448;6.260;2023-12-20T09:43:30;21.20;;;4.50;;
19024;SDS011;9645;51.448;6.260;2023-12-20T09:45:58;15.25;;;4.07;;
19024;SDS011;9645;51.448;6.260;2023-12-20T09:48:28;28.08;;;4.93;;
19024;SDS011;9645;51.448;6.260;2023-12-20T09:50:57;21.02;;;4.32;;
19024;SDS011;9645;51.448;6.260;2023-12-20T09:53:24;17.83;;;3.92;;
19024;SDS011;9645;51.448;6.260;2023-12-20T09:55:55;19.20;;;4.40;;
19024;SDS011;9645;51.448;6.260;2023-12-20T09:58:25;17.17;;;4.57;;
19024;SDS011;9645;51.448;6.260;2023-12-20T10:00:52;32.80;;;5.32;;
19024;SDS011;9645;51.448;6.260;2023-12-20T10:03:21;21.25;;;4.55;;
19024;SDS011;9645;51.448;6.260;2023-12-20T10:05:52;24.90;;;5.47;;
19024;SDS011;9645;51.448;6.260;2023-12-20T10:08:22;12.77;;;3.50;;
19024;SDS011;9645;51.448;6.260;2023-12-20T10:10:51;21.88;;;4.25;;
19024;SDS011;9645;51.448;6.260;2023-12-20T10:13:18;14.13;;;4.00;;
19024;SDS011;9645;51.448;6.260;2023-12-20T10:15:45;19.42;;;3.60;;
19024;SDS011;9645;51.448;6.260;2023-12-20T10:18:12;16.35;;;4.30;;
19024;SDS011;9645;51.448;6.260;2023-12-20T10:20:40;27.00;;;5.28;;
19024;SDS011;9645;51.448;6.260;2023-12-20T10:23:07;18.35;;;4.40;;
19024;SDS011;9645;51.448;6.260;2023-12-20T10:25:36;29.50;;;4.70;;
19024;SDS011;9645;51.448;6.260;2023-12-20T10:28:10;13.70;;;4.40;;
19024;SDS011;9645;51.448;6.260;2023-12-20T10:30:37;21.48;;;3.83;;
19024;SDS011;9645;51.448;6.260;2023-12-20T10:33:05;14.63;;;5.13;;
19024;SDS011;9645;51.448;6.260;2023-12-20T10:35:33;46.22;;;5.80;;
19024;SDS011;9645;51.448;6.260;2023-12-20T10:38:01;15.13;;;5.00;;
19024;SDS011;9645;51.448;6.260;2023-12-20T10:40:30;24.08;;;4.28;;
19024;SDS011;9645;51.448;6.260;2023-12-20T10:42:59;18.13;;;4.22;;
19024;SDS011;9645;51.448;6.260;2023-12-20T10:45:28;17.02;;;4.68;;
19024;SDS011;9645;51.448;6.260;2023-12-20T10:47:55;17.30;;;4.63;;
19024;SDS011;9645;51.448;6.260;2023-12-20T10:50:24;30.20;;;4.55;;
19024;SDS011;9645;51.448;6.260;2023-12-20T10:52:52;15.80;;;5.13;;
19024;SDS011;9645;51.448;6.260;2023-12-20T10:55:21;20.38;;;4.57;;
19024;SDS011;9645;51.448;6.260;2023-12-20T10:57:49;12.80;;;3.95;;
19024;SDS011;9645;51.448;6.260;2023-12-20T11:00:18;21.95;;;4.50;;
19024;SDS011;9645;51.448;6.260;2023-12-20T11:02:48;19.85;;;4.25;;
19024;SDS011;9645;51.448;6.260;2023-12-20T11:05:19;12.15;;;4.22;;
19024;SDS011;9645;51.448;6.260;2023-12-20T11:07:53;22.55;;;5.13;;
19024;SDS011;9645;51.448;6.260;2023-12-20T11:10:25;20.13;;;4.90;;
19024;SDS011;9645;51.448;6.260;2023-12-20T11:12:57;12.75;;;4.78;;
19024;SDS011;9645;51.448;6.260;2023-12-20T11:15:35;20.73;;;5.47;;
19024;SDS011;9645;51.448;6.260;2023-12-20T11:18:03;24.92;;;5.43;;
19024;SDS011;9645;51.448;6.260;2023-12-20T11:20:35;13.68;;;4.60;;
19024;SDS011;9645;51.448;6.260;2023-12-20T11:23:03;21.35;;;5.32;;
19024;SDS011;9645;51.448;6.260;2023-12-20T11:25:34;18.98;;;5.30;;
19024;SDS011;9645;51.448;6.260;2023-12-20T11:28:13;9.73;;;4.68;;
19024;SDS011;9645;51.448;6.260;2023-12-20T11:30:41;30.65;;;5.35;;
19024;SDS011;9645;51.448;6.260;2023-12-20T11:33:12;19.45;;;5.30;;
19024;SDS011;9645;51.448;6.260;2023-12-20T11:35:39;13.05;;;4.68;;
19024;SDS011;9645;51.448;6.260;2023-12-20T11:38:07;20.30;;;4.80;;
19024;SDS011;9645;51.448;6.260;2023-12-20T11:40:35;18.15;;;5.57;;
19024;SDS011;9645;51.448;6.260;2023-12-20T11:43:02;29.67;;;5.28;;
19024;SDS011;9645;51.448;6.260;2023-12-20T11:45:30;15.05;;;4.38;;
19024;SDS011;9645;51.448;6.260;2023-12-20T11:47:58;13.52;;;4.63;;
19024;SDS011;9645;51.448;6.260;2023-12-20T11:50:25;21.50;;;5.22;;
19024;SDS011;9645;51.448;6.260;2023-12-20T11:52:53;27.52;;;5.15;;
19024;SDS011;9645;51.448;6.260;2023-12-20T11:55:20;12.50;;;4.50;;
19024;SDS011;9645;51.448;6.260;2023-12-20T11:57:49;18.50;;;4.88;;
19024;SDS011;9645;51.448;6.260;2023-12-20T12:00:16;28.55;;;4.55;;
19024;SDS011;9645;51.448;6.260;2023-12-20T12:02:54;20.00;;;5.13;;
19024;SDS011;9645;51.448;6.260;2023-12-20T12:05:24;19.75;;;5.30;;
19024;SDS011;9645;51.448;6.260;2023-12-20T12:07:51;14.30;;;4.65;;
19024;SDS011;9645;51.448;6.260;2023-12-20T12:10:18;17.02;;;5.68;;
19024;SDS011;9645;51.448;6.260;2023-12-20T12:12:45;16.42;;;4.50;;
19024;SDS011;9645;51.448;6.260;2023-12-20T12:15:13;18.10;;;5.50;;
19024;SDS011;9645;51.448;6.260;2023-12-20T12:17:41;12.32;;;4.82;;
19024;SDS011;9645;51.448;6.260;2023-12-20T12:20:08;16.77;;;5.57;;
19024;SDS011;9645;51.448;6.260;2023-12-20T12:22:37;13.38;;;4.32;;
19024;SDS011;9645;51.448;6.260;2023-12-20T12:25:10;40.33;;;6.55;;
19024;SDS011;9645;51.448;6.260;2023-12-20T12:27:39;21.50;;;5.47;;
19024;SDS011;9645;51.448;6.260;2023-12-20T12:30:07;11.90;;;4.47;;
19024;SDS011;9645;51.448;6.260;2023-12-20T12:32:38;13.10;;;5.30;;
19024;SDS011;9645;51.448;6.260;2023-12-20T12:35:05;21.17;;;4.70;;
19024;SDS011;9645;51.448;6.260;2023-12-20T12:37:34;35.60;;;5.60;;
19024;SDS011;9645;51.448;6.260;2023-12-20T12:40:05;17.92;;;4.57;;
19024;SDS011;9645;51.448;6.260;2023-12-20T12:42:33;32.38;;;6.07;;
19024;SDS011;9645;51.448;6.260;2023-12-20T12:45:00;17.90;;;5.15;;
19024;SDS011;9645;51.448;6.260;2023-12-20T12:47:27;20.45;;;4.75;;
19024;SDS011;9645;51.448;6.260;2023-12-20T12:49:54;15.48;;;4.80;;
19024;SDS011;9645;51.448;6.260;2023-12-20T12:52:21;18.92;;;5.10;;
19024;SDS011;9645;51.448;6.260;2023-12-20T12:54:48;16.80;;;5.80;;
19024;SDS011;9645;51.448;6.260;2023-12-20T12:57:16;15.73;;;5.95;;
19024;SDS011;9645;51.448;6.260;2023-12-20T12:59:44;30.98;;;5.43;;
19024;SDS011;9645;51.448;6.260;2023-12-20T13:02:14;28.20;;;6.10;;
19024;SDS011;9645;51.448;6.260;2023-12-20T13:04:41;21.45;;;4.95;;
19024;SDS011;9645;51.448;6.260;2023-12-20T13:07:08;19.98;;;5.70;;
19024;SDS011;9645;51.448;6.260;2023-12-20T13:09:36;28.75;;;7.18;;
19024;SDS011;9645;51.448;6.260;2023-12-20T13:12:04;26.05;;;5.85;;
19024;SDS011;9645;51.448;6.260;2023-12-20T13:14:33;21.35;;;7.00;;
19024;SDS011;9645;51.448;6.260;2023-12-20T13:17:02;23.77;;;6.40;;
19024;SDS011;9645;51.448;6.260;2023-12-20T13:19:29;23.08;;;6.05;;
19024;SDS011;9645;51.448;6.260;2023-12-20T13:21:56;21.65;;;6.80;;
19024;SDS011;9645;51.448;6.260;2023-12-20T13:24:24;22.42;;;6.80;;
19024;SDS011;9645;51.448;6.260;2023-12-20T13:26:51;28.17;;;6.97;;
19024;SDS011;9645;51.448;6.260;2023-12-20T13:29:18;26.10;;;6.63;;
19024;SDS011;9645;51.448;6.260;2023-12-20T13:31:46;19.33;;;6.68;;
19024;SDS011;9645;51.448;6.260;2023-12-20T13:34:14;14.05;;;5.85;;
19024;SDS011;9645;51.448;6.260;2023-12-20T13:36:42;27.08;;;7.38;;
19024;SDS011;9645;51.448;6.260;2023-12-20T13:39:12;24.35;;;7.38;;
19024;SDS011;9645;51.448;6.260;2023-12-20T13:41:39;24.00;;;7.55;;
19024;SDS011;9645;51.448;6.260;2023-12-20T13:44:06;24.08;;;7.03;;
19024;SDS011;9645;51.448;6.260;2023-12-20T13:46:34;18.08;;;5.85;;
19024;SDS011;9645;51.448;6.260;2023-12-20T13:49:05;18.55;;;6.85;;
19024;SDS011;9645;51.448;6.260;2023-12-20T13:51:32;23.00;;;6.63;;
19024;SDS011;9645;51.448;6.260;2023-12-20T13:53:59;26.67;;;6.70;;
19024;SDS011;9645;51.448;6.260;2023-12-20T13:56:26;15.32;;;6.30;;
19024;SDS011;9645;51.448;6.260;2023-12-20T13:58:53;28.10;;;7.18;;
19024;SDS011;9645;51.448;6.260;2023-12-20T14:01:20;24.95;;;7.03;;
19024;SDS011;9645;51.448;6.260;2023-12-20T14:03:47;27.27;;;6.70;;
19024;SDS011;9645;51.448;6.260;2023-12-20T14:06:16;28.00;;;7.40;;
19024;SDS011;9645;51.448;6.260;2023-12-20T14:08:43;15.18;;;6.13;;
19024;SDS011;9645;51.448;6.260;2023-12-20T14:11:10;18.60;;;6.50;;
19024;SDS011;9645;51.448;6.260;2023-12-20T14:13:37;35.78;;;6.75;;
19024;SDS011;9645;51.448;6.260;2023-12-20T14:16:04;24.65;;;5.88;;
19024;SDS011;9645;51.448;6.260;2023-12-20T14:18:31;18.02;;;5.75;;
19024;SDS011;9645;51.448;6.260;2023-12-20T14:20:58;19.75;;;6.10;;
19024;SDS011;9645;51.448;6.260;2023-12-20T14:23:27;25.17;;;5.80;;
19024;SDS011;9645;51.448;6.260;2023-12-20T14:25:53;21.00;;;6.03;;
19024;SDS011;9645;51.448;6.260;2023-12-20T14:28:21;20.02;;;6.53;;
19024;SDS011;9645;51.448;6.260;2023-12-20T14:30:48;19.83;;;5.20;;
19024;SDS011;9645;51.448;6.260;2023-12-20T14:33:15;36.38;;;6.47;;
19024;SDS011;9645;51.448;6.260;2023-12-20T14:35:42;15.77;;;5.88;;
19024;SDS011;9645;51.448;6.260;2023-12-20T14:38:09;22.70;;;6.30;;
19024;SDS011;9645;51.448;6.260;2023-12-20T14:40:39;15.43;;;5.43;;
19024;SDS011;9645;51.448;6.260;2023-12-20T14:43:06;23.63;;;6.90;;
19024;SDS011;9645;51.448;6.260;2023-12-20T14:45:34;20.13;;;6.47;;
19024;SDS011;9645;51.448;6.260;2023-12-20T14:48:00;26.40;;;6.20;;
19024;SDS011;9645;51.448;6.260;2023-12-20T14:50:28;29.52;;;6.95;;